createdAt,value
2017-08-01T04:14:49.058Z,0
2017-08-01T04:15:50.709Z,0
2017-08-01T04:17:42.608Z,0
2017-08-01T04:18:44.439Z,0
2017-08-01T04:19:46.101Z,5
2017-08-01T04:20:47.777Z,5
2017-08-01T04:21:49.443Z,5
2017-08-01T04:22:51.103Z,5
2017-08-01T04:23:52.769Z,5
2017-08-01T04:24:54.431Z,10
2017-08-01T04:25:56.094Z,15
2017-08-01T04:26:57.750Z,15
2017-08-01T04:27:59.463Z,20
2017-08-01T04:29:01.130Z,25
2017-08-01T04:31:12.820Z,30
2017-08-01T04:32:14.498Z,35
2017-08-01T04:34:06.396Z,45
2017-08-01T04:35:08.068Z,45
2017-08-01T04:36:09.729Z,45
2017-08-01T04:37:11.401Z,45
2017-08-01T04:38:13.071Z,45
2017-08-01T04:39:14.736Z,50
2017-08-01T04:40:16.401Z,50
2017-08-01T04:41:18.068Z,50
2017-08-01T04:42:19.736Z,50
2017-08-01T04:43:21.406Z,55
2017-08-01T04:44:23.066Z,55
2017-08-01T04:45:24.727Z,60
2017-08-01T04:46:26.389Z,60
2017-08-01T04:47:28.053Z,65
2017-08-01T04:48:29.724Z,70
2017-08-01T04:49:31.383Z,75
2017-08-01T04:50:33.044Z,85
2017-08-01T04:51:34.709Z,95
2017-08-01T04:52:36.400Z,105
2017-08-01T04:53:38.061Z,115
2017-08-01T04:54:39.730Z,125
2017-08-01T04:55:41.394Z,130
2017-08-01T04:56:43.061Z,135
2017-08-01T04:57:44.724Z,135
2017-08-01T04:58:46.389Z,140
2017-08-01T04:59:48.057Z,145
2017-08-01T05:00:49.726Z,150
2017-08-01T05:01:51.392Z,145
2017-08-01T05:02:53.063Z,135
2017-08-01T05:03:54.737Z,130
2017-08-01T05:04:56.394Z,135
2017-08-01T05:05:58.092Z,115
2017-08-01T05:06:59.746Z,130
2017-08-01T05:08:01.410Z,105
2017-08-01T05:09:03.143Z,105
2017-08-01T05:10:04.808Z,110
2017-08-01T05:11:06.471Z,110
2017-08-01T05:12:08.146Z,115
2017-08-01T05:13:09.825Z,85
2017-08-01T05:14:11.492Z,100
2017-08-01T05:15:13.163Z,160
2017-08-01T05:16:14.826Z,210
2017-08-01T05:17:16.486Z,255
2017-08-01T05:18:18.156Z,305
2017-08-01T05:19:19.830Z,355
2017-08-01T05:20:21.494Z,380
2017-08-01T05:21:23.174Z,315
2017-08-01T05:22:24.842Z,300
2017-08-01T05:23:26.517Z,305
2017-08-01T05:24:28.188Z,340
2017-08-01T05:25:29.852Z,325
2017-08-01T05:26:31.516Z,390
2017-08-01T05:27:33.188Z,315
2017-08-01T05:28:34.857Z,310
2017-08-01T05:29:36.524Z,325
2017-08-01T05:30:38.196Z,290
2017-08-01T05:31:39.870Z,325
2017-08-01T05:32:41.540Z,285
2017-08-01T05:33:43.204Z,330
2017-08-01T05:34:44.890Z,440
2017-08-01T05:35:46.559Z,435
2017-08-01T05:36:48.225Z,385
2017-08-01T05:37:49.900Z,330
2017-08-01T05:38:51.564Z,315
2017-08-01T05:39:53.229Z,330
2017-08-01T05:40:54.894Z,355
2017-08-01T05:41:56.558Z,330
2017-08-01T05:42:58.234Z,355
2017-08-01T05:43:59.901Z,385
2017-08-01T05:45:01.581Z,420
2017-08-01T05:46:03.243Z,455
2017-08-01T05:47:04.912Z,475
2017-08-01T05:48:06.588Z,485
2017-08-01T05:49:08.258Z,480
2017-08-01T05:50:09.929Z,450
2017-08-01T05:51:11.597Z,400
2017-08-01T05:52:13.269Z,360
2017-08-01T05:53:14.961Z,320
2017-08-01T05:54:16.602Z,300
2017-08-01T05:55:18.275Z,280
2017-08-01T05:56:19.945Z,255
2017-08-01T05:57:21.603Z,235
2017-08-01T05:58:23.275Z,220
2017-08-01T05:59:24.946Z,210
2017-08-01T06:00:26.616Z,205
2017-08-01T06:01:28.280Z,210
2017-08-01T06:02:29.943Z,225
2017-08-01T06:03:31.611Z,245
2017-08-01T06:04:33.282Z,270
2017-08-01T06:05:34.940Z,290
2017-08-01T06:06:36.613Z,310
2017-08-01T06:07:38.410Z,335
2017-08-01T06:08:40.076Z,365
2017-08-01T06:09:41.751Z,395
2017-08-01T06:10:43.417Z,415
2017-08-01T06:11:45.079Z,430
2017-08-01T06:12:46.757Z,445
2017-08-01T06:13:48.421Z,465
2017-08-01T06:14:50.095Z,490
2017-08-01T06:15:51.763Z,510
2017-08-01T06:16:53.429Z,520
2017-08-01T06:17:55.117Z,515
2017-08-01T06:18:56.775Z,500
2017-08-01T06:19:58.445Z,480
2017-08-01T06:21:00.144Z,450
2017-08-01T06:22:01.818Z,445
2017-08-01T06:23:03.485Z,485
2017-08-01T06:24:05.151Z,545
2017-08-01T06:25:06.815Z,605
2017-08-01T06:26:08.481Z,605
2017-08-01T06:27:10.167Z,595
2017-08-01T06:28:11.833Z,490
2017-08-01T06:29:13.517Z,430
2017-08-01T06:30:15.185Z,410
2017-08-01T06:31:16.851Z,405
2017-08-01T06:32:18.514Z,410
2017-08-01T06:33:20.184Z,410
2017-08-01T06:34:21.849Z,415
2017-08-01T06:35:23.527Z,425
2017-08-01T06:36:25.193Z,445
2017-08-01T06:37:26.854Z,470
2017-08-01T06:38:28.538Z,495
2017-08-01T06:39:30.203Z,510
2017-08-01T06:40:31.867Z,510
2017-08-01T06:41:33.559Z,510
2017-08-01T06:42:35.230Z,515
2017-08-01T06:43:36.898Z,515
2017-08-01T06:44:38.564Z,490
2017-08-01T06:45:40.234Z,455
2017-08-01T06:46:41.903Z,380
2017-08-01T06:47:43.564Z,320
2017-08-01T06:48:45.226Z,305
2017-08-01T06:49:46.892Z,315
2017-08-01T06:50:48.582Z,360
2017-08-01T06:51:50.247Z,415
2017-08-01T06:52:51.910Z,455
2017-08-01T06:53:53.575Z,505
2017-08-01T06:54:55.254Z,545
2017-08-01T06:55:56.914Z,585
2017-08-01T06:56:58.588Z,635
2017-08-01T06:58:00.259Z,665
2017-08-01T06:59:01.927Z,685
2017-08-01T07:00:03.598Z,670
2017-08-01T07:01:05.271Z,660
2017-08-01T07:02:06.939Z,680
2017-08-01T07:03:08.612Z,695
2017-08-01T07:04:10.275Z,710
2017-08-01T07:05:11.947Z,700
2017-08-01T07:06:13.612Z,700
2017-08-01T07:07:15.287Z,790
2017-08-01T07:08:16.956Z,1000
2017-08-01T07:09:18.632Z,1135
2017-08-01T07:10:20.305Z,1150
2017-08-01T07:11:21.978Z,1165
2017-08-01T07:12:23.653Z,950
2017-08-01T07:13:25.320Z,840
2017-08-01T07:14:26.989Z,780
2017-08-01T07:15:28.661Z,700
2017-08-01T07:16:30.338Z,710
2017-08-01T07:17:32.012Z,740
2017-08-01T07:18:33.675Z,715
2017-08-01T07:19:35.378Z,700
2017-08-01T07:20:37.056Z,750
2017-08-01T07:21:38.732Z,775
2017-08-01T07:22:40.398Z,740
2017-08-01T07:23:42.075Z,685
2017-08-01T07:24:43.746Z,595
2017-08-01T07:25:45.416Z,550
2017-08-01T07:26:47.087Z,500
2017-08-01T07:27:48.761Z,425
2017-08-01T07:28:50.433Z,320
2017-08-01T07:29:52.119Z,265
2017-08-01T07:30:53.797Z,200
2017-08-01T07:31:55.452Z,200
2017-08-01T07:32:57.124Z,240
2017-08-01T07:33:58.796Z,290
2017-08-01T07:35:00.461Z,290
2017-08-01T07:36:02.133Z,245
2017-08-01T07:37:03.799Z,275
2017-08-01T07:38:05.467Z,365
2017-08-01T07:39:07.148Z,465
2017-08-01T07:40:08.823Z,545
2017-08-01T07:41:10.497Z,585
2017-08-01T07:42:12.172Z,565
2017-08-01T07:43:13.852Z,520
2017-08-01T07:44:15.515Z,480
2017-08-01T07:45:17.188Z,500
2017-08-01T07:46:18.855Z,570
2017-08-01T07:47:20.533Z,660
2017-08-01T07:48:22.200Z,685
2017-08-01T07:49:23.864Z,595
2017-08-01T07:50:25.532Z,490
2017-08-01T07:51:27.202Z,410
2017-08-01T07:52:28.876Z,405
2017-08-01T07:53:30.538Z,440
2017-08-01T07:54:32.218Z,430
2017-08-01T07:55:33.891Z,375
2017-08-01T07:56:35.557Z,335
2017-08-01T07:57:37.231Z,360
2017-08-01T07:58:38.907Z,415
2017-08-01T07:59:40.570Z,415
2017-08-01T08:00:42.238Z,360
2017-08-01T08:01:43.915Z,315
2017-08-01T08:02:45.586Z,275
2017-08-01T08:03:47.252Z,250
2017-08-01T08:04:48.920Z,230
2017-08-01T08:05:50.626Z,210
2017-08-01T08:06:52.261Z,190
2017-08-01T08:07:53.995Z,180
2017-08-01T08:08:55.645Z,180
2017-08-01T08:09:57.323Z,185
2017-08-01T08:10:58.990Z,195
2017-08-01T08:12:00.666Z,175
2017-08-01T08:13:02.334Z,145
2017-08-01T08:14:04.021Z,125
2017-08-01T08:15:05.695Z,140
2017-08-01T08:16:07.366Z,185
2017-08-01T08:17:09.031Z,255
2017-08-01T08:18:10.716Z,355
2017-08-01T08:19:12.388Z,485
2017-08-01T08:20:14.057Z,570
2017-08-01T08:21:15.734Z,645
2017-08-01T08:22:17.398Z,700
2017-08-01T08:23:19.134Z,670
2017-08-01T08:24:20.806Z,585
2017-08-01T08:25:22.522Z,525
2017-08-01T08:26:24.197Z,470
2017-08-01T08:27:25.884Z,390
2017-08-01T08:28:27.554Z,305
2017-08-01T08:29:29.264Z,250
2017-08-01T08:30:30.940Z,240
2017-08-01T08:31:32.630Z,235
2017-08-01T08:32:34.288Z,225
2017-08-01T08:33:35.963Z,135
2017-08-01T08:34:37.633Z,100
2017-08-01T08:35:39.304Z,90
2017-08-01T08:36:40.973Z,95
2017-08-01T08:37:42.651Z,85
2017-08-01T08:38:44.320Z,100
2017-08-01T08:39:46.001Z,105
2017-08-01T08:40:47.651Z,125
2017-08-01T08:41:49.315Z,205
2017-08-01T08:42:50.990Z,255
2017-08-01T08:43:52.655Z,220
2017-08-01T08:44:54.334Z,190
2017-08-01T08:45:56.009Z,180
2017-08-01T08:46:57.672Z,245
2017-08-01T08:47:59.339Z,180
2017-08-01T08:49:01.007Z,150
2017-08-01T08:50:02.668Z,360
2017-08-01T08:51:04.367Z,275
2017-08-01T08:52:06.066Z,285
2017-08-01T08:53:07.734Z,360
2017-08-01T08:54:09.404Z,345
2017-08-01T08:55:11.065Z,420
2017-08-01T08:56:12.734Z,585
2017-08-01T08:57:14.441Z,550
2017-08-01T08:58:16.111Z,490
2017-08-01T08:59:17.782Z,475
2017-08-01T09:00:19.483Z,485
2017-08-01T09:01:21.147Z,495
2017-08-01T09:02:22.809Z,505
2017-08-01T09:03:24.489Z,385
2017-08-01T09:04:26.136Z,290
2017-08-01T09:05:27.812Z,255
2017-08-01T09:06:29.480Z,280
2017-08-01T09:07:31.144Z,240
2017-08-01T09:08:32.850Z,225
2017-08-01T09:09:34.531Z,290
2017-08-01T09:10:36.198Z,230
2017-08-01T09:11:37.857Z,250
2017-08-01T09:12:39.523Z,195
2017-08-01T09:13:41.203Z,275
2017-08-01T09:14:42.874Z,280
2017-08-01T09:15:44.575Z,315
2017-08-01T09:16:46.221Z,350
2017-08-01T09:17:47.892Z,380
2017-08-01T09:18:49.555Z,445
2017-08-01T09:19:51.221Z,470
2017-08-01T09:20:52.888Z,445
2017-08-01T09:21:54.565Z,440
2017-08-01T09:22:56.232Z,400
2017-08-01T09:23:57.896Z,345
2017-08-01T09:24:59.590Z,335
2017-08-01T09:26:01.260Z,365
2017-08-01T09:27:02.944Z,400
2017-08-01T09:28:04.621Z,425
2017-08-01T09:29:06.285Z,420
2017-08-01T09:30:07.955Z,390
2017-08-01T09:31:09.618Z,360
2017-08-01T09:32:11.283Z,350
2017-08-01T09:33:12.963Z,355
2017-08-01T09:34:14.630Z,370
2017-08-01T09:35:16.296Z,380
2017-08-01T09:36:17.966Z,415
2017-08-01T09:37:19.635Z,450
2017-08-01T09:38:21.311Z,490
2017-08-01T09:39:22.982Z,540
2017-08-01T09:40:24.647Z,595
2017-08-01T09:41:26.323Z,685
2017-08-01T09:42:27.989Z,760
2017-08-01T09:43:29.661Z,845
2017-08-01T09:44:31.325Z,945
2017-08-01T09:45:33.001Z,1065
2017-08-01T09:46:34.677Z,1120
2017-08-01T09:47:36.340Z,1190
2017-08-01T09:48:38.016Z,1450
2017-08-01T09:49:39.687Z,1750
2017-08-01T09:50:41.904Z,1815
2017-08-01T09:51:43.573Z,2225
2017-08-01T09:52:45.238Z,2460
2017-08-01T09:53:46.909Z,2355
2017-08-01T09:54:48.576Z,2435
2017-08-01T09:55:50.252Z,2075
2017-08-01T09:56:51.922Z,1965
2017-08-01T09:57:53.605Z,2385
2017-08-01T09:58:55.270Z,2425
2017-08-01T09:59:56.950Z,2090
2017-08-01T10:00:58.630Z,1745
2017-08-01T10:02:00.303Z,1485
2017-08-01T10:03:01.994Z,1490
2017-08-01T10:04:03.941Z,1605
2017-08-01T10:05:05.615Z,1690
2017-08-01T10:06:07.290Z,1580
2017-08-01T10:07:08.969Z,1595
2017-08-01T10:08:10.644Z,1590
2017-08-01T10:09:12.318Z,1565
2017-08-01T10:10:13.988Z,1520
2017-08-01T10:11:15.664Z,1510
2017-08-01T10:12:17.345Z,1520
2017-08-01T10:13:19.026Z,1530
2017-08-01T10:14:20.703Z,1530
2017-08-01T10:15:22.376Z,1550
2017-08-01T10:16:24.056Z,1330
2017-08-01T10:17:25.745Z,1320
2017-08-01T10:18:27.421Z,1265
2017-08-01T10:19:29.099Z,1945
2017-08-01T10:20:30.778Z,3415
2017-08-01T10:21:32.455Z,3070
2017-08-01T10:22:34.128Z,1250
2017-08-01T10:23:35.817Z,1530
2017-08-01T10:24:37.495Z,1935
2017-08-01T10:25:39.171Z,1655
2017-08-01T10:26:40.848Z,1325
2017-08-01T10:27:42.527Z,1705
2017-08-01T10:28:44.208Z,1985
2017-08-01T10:29:45.896Z,2305
2017-08-01T10:30:47.587Z,4555
2017-08-01T10:31:49.252Z,3175
2017-08-01T10:32:50.929Z,1765
2017-08-01T10:33:52.613Z,1525
2017-08-01T10:34:54.289Z,1235
2017-08-01T10:35:55.970Z,1545
2017-08-01T10:36:57.652Z,1255
2017-08-01T10:37:59.327Z,1670
2017-08-01T10:39:01.009Z,815
2017-08-01T10:40:02.705Z,945
2017-08-01T10:41:04.384Z,3350
2017-08-01T10:42:06.062Z,4700
2017-08-01T10:43:07.753Z,3115
2017-08-01T10:44:09.431Z,1900
2017-08-01T10:45:11.111Z,4625
2017-08-01T10:46:12.789Z,1925
2017-08-01T10:47:14.465Z,1570
2017-08-01T10:48:16.147Z,1970
2017-08-01T10:49:17.827Z,2560
2017-08-01T10:50:19.506Z,4595
2017-08-01T10:51:21.186Z,3720
2017-08-01T10:52:22.890Z,4175
2017-08-01T10:53:24.569Z,4275
2017-08-01T10:54:26.252Z,3135
2017-08-01T10:55:27.926Z,1995
2017-08-01T10:56:29.610Z,1130
2017-08-01T10:57:31.293Z,1340
2017-08-01T10:58:32.974Z,1320
2017-08-01T10:59:34.654Z,1120
2017-08-01T11:00:36.347Z,1150
2017-08-01T11:01:38.030Z,1540
2017-08-01T11:02:39.703Z,1430
2017-08-01T11:03:41.392Z,1275
2017-08-01T11:04:43.077Z,1280
2017-08-01T11:05:44.756Z,2030
2017-08-01T11:06:46.435Z,3215
2017-08-01T11:07:48.112Z,1975
2017-08-01T11:08:49.797Z,1370
2017-08-01T11:09:51.476Z,1250
2017-08-01T11:10:53.154Z,1190
2017-08-01T11:11:54.824Z,1570
2017-08-01T11:12:56.505Z,5345
2017-08-01T11:13:58.198Z,4095
2017-08-01T11:14:59.876Z,2620
2017-08-01T11:16:01.554Z,1715
2017-08-01T11:17:03.247Z,1955
2017-08-01T11:18:04.933Z,1510
2017-08-01T11:19:06.609Z,1470
2017-08-01T11:20:08.303Z,2015
2017-08-01T11:21:09.978Z,1575
2017-08-01T11:22:11.657Z,1935
2017-08-01T11:23:13.338Z,1830
2017-08-01T11:24:15.037Z,1685
2017-08-01T11:25:16.718Z,1655
2017-08-01T11:26:18.399Z,1400
2017-08-01T11:27:20.092Z,1185
2017-08-01T11:28:21.768Z,1055
2017-08-01T11:29:23.452Z,1060
2017-08-01T11:30:25.140Z,1115
2017-08-01T11:31:26.827Z,980
2017-08-01T11:32:28.489Z,840
2017-08-01T11:33:30.166Z,780
2017-08-01T11:34:31.838Z,895
2017-08-01T11:35:33.507Z,840
2017-08-01T11:36:35.186Z,675
2017-08-01T11:37:36.864Z,585
2017-08-01T11:38:38.544Z,695
2017-08-01T11:39:40.216Z,850
2017-08-01T11:40:41.888Z,805
2017-08-01T11:41:43.566Z,575
2017-08-01T11:42:45.236Z,340
2017-08-01T11:43:46.909Z,260
2017-08-01T11:44:48.582Z,320
2017-08-01T11:45:50.262Z,680
2017-08-01T11:46:51.932Z,760
2017-08-01T11:47:53.605Z,580
2017-08-01T11:48:55.281Z,505
2017-08-01T11:49:56.955Z,435
2017-08-01T11:50:58.632Z,500
2017-08-01T11:52:00.306Z,545
2017-08-01T11:53:01.977Z,490
2017-08-01T11:54:03.647Z,495
2017-08-01T11:55:05.340Z,545
2017-08-01T11:56:07.012Z,590
2017-08-01T11:57:08.684Z,660
2017-08-01T11:58:10.367Z,690
2017-08-01T11:59:12.033Z,695
2017-08-01T12:00:13.704Z,685
2017-08-01T12:01:15.394Z,665
2017-08-01T12:02:17.063Z,635
2017-08-01T12:03:18.746Z,645
2017-08-01T12:04:20.456Z,650
2017-08-01T12:05:22.132Z,650
2017-08-01T12:06:23.800Z,655
2017-08-01T12:07:25.480Z,660
2017-08-01T12:08:27.153Z,690
2017-08-01T12:09:28.826Z,750
2017-08-01T12:10:30.572Z,755
2017-08-01T12:11:32.198Z,810
2017-08-01T12:12:33.865Z,920
2017-08-01T12:13:35.547Z,1130
2017-08-01T12:14:37.217Z,1220
2017-08-01T12:15:38.892Z,1120
2017-08-01T12:16:40.571Z,965
2017-08-01T12:17:42.235Z,805
2017-08-01T12:18:43.909Z,640
2017-08-01T12:19:45.575Z,565
2017-08-01T12:20:47.250Z,545
2017-08-01T12:21:48.924Z,555
2017-08-01T12:22:50.590Z,535
2017-08-01T12:23:52.259Z,545
2017-08-01T12:24:53.925Z,580
2017-08-01T12:25:55.596Z,605
2017-08-01T12:26:57.259Z,665
2017-08-01T12:27:58.936Z,600
2017-08-01T12:29:00.646Z,625
2017-08-01T12:30:02.318Z,635
2017-08-01T12:31:03.988Z,680
2017-08-01T12:32:05.652Z,665
2017-08-01T12:33:07.336Z,665
2017-08-01T12:34:09.010Z,750
2017-08-01T12:35:10.684Z,785
2017-08-01T12:36:12.356Z,815
2017-08-01T12:37:14.031Z,775
2017-08-01T12:38:15.706Z,670
2017-08-01T12:39:17.381Z,600
2017-08-01T12:40:19.047Z,540
2017-08-01T12:41:20.715Z,465
2017-08-01T12:42:22.383Z,420
2017-08-01T12:43:24.062Z,390
2017-08-01T12:44:25.752Z,400
2017-08-01T12:45:27.437Z,455
2017-08-01T12:46:29.113Z,555
2017-08-01T12:47:30.782Z,700
2017-08-01T12:48:32.499Z,790
2017-08-01T12:49:34.171Z,760
2017-08-01T12:50:35.845Z,725
2017-08-01T12:51:37.517Z,825
2017-08-01T12:52:39.189Z,1395
2017-08-01T12:53:40.863Z,2710
2017-08-01T12:54:42.537Z,2965
2017-08-01T12:55:44.206Z,2025
2017-08-01T12:56:45.893Z,2290
2017-08-01T12:57:47.567Z,2490
2017-08-01T12:58:49.244Z,3165
2017-08-01T12:59:50.914Z,2895
2017-08-01T13:00:52.608Z,2640
2017-08-01T13:01:54.276Z,1915
2017-08-01T13:02:55.951Z,1335
2017-08-01T13:03:57.633Z,2440
2017-08-01T13:04:59.317Z,1920
2017-08-01T13:06:00.994Z,1460
2017-08-01T13:07:02.669Z,2075
2017-08-01T13:08:04.351Z,2065
2017-08-01T13:09:06.025Z,2000
2017-08-01T13:10:07.713Z,1795
2017-08-01T13:11:09.403Z,1685
2017-08-01T13:12:11.076Z,1865
2017-08-01T13:13:12.744Z,2100
2017-08-01T13:14:14.454Z,2075
2017-08-01T13:15:16.127Z,2155
2017-08-01T13:16:17.802Z,1715
2017-08-01T13:17:19.479Z,1460
2017-08-01T13:18:21.164Z,1230
2017-08-01T13:19:22.841Z,1035
2017-08-01T13:20:24.529Z,930
2017-08-01T13:21:26.194Z,1140
2017-08-01T13:22:27.869Z,1090
2017-08-01T13:23:29.544Z,1085
2017-08-01T13:24:31.217Z,1115
2017-08-01T13:25:32.893Z,1150
2017-08-01T13:26:34.582Z,1050
2017-08-01T13:27:36.243Z,965
2017-08-01T13:28:37.937Z,870
2017-08-01T13:29:39.616Z,790
2017-08-01T13:30:41.297Z,725
2017-08-01T13:31:42.974Z,650
2017-08-01T13:32:44.649Z,610
2017-08-01T13:33:46.315Z,575
2017-08-01T13:34:47.982Z,540
2017-08-01T13:35:49.654Z,505
2017-08-01T13:36:51.328Z,490
2017-08-01T13:37:53.006Z,490
2017-08-01T13:38:54.681Z,495
2017-08-01T13:39:56.371Z,535
2017-08-01T13:40:58.059Z,610
2017-08-01T13:41:59.743Z,700
2017-08-01T13:43:01.432Z,780
2017-08-01T13:44:03.109Z,835
2017-08-01T13:45:04.786Z,865
2017-08-01T13:46:06.465Z,870
2017-08-01T13:47:08.161Z,860
2017-08-01T13:48:09.815Z,870
2017-08-01T13:49:11.712Z,890
2017-08-01T13:50:13.383Z,905
2017-08-01T13:51:15.047Z,920
2017-08-01T13:52:16.726Z,915
2017-08-01T13:53:18.408Z,925
2017-08-01T13:54:20.079Z,955
2017-08-01T13:55:21.757Z,990
2017-08-01T13:56:23.427Z,1000
2017-08-01T13:57:25.100Z,990
2017-08-01T13:58:26.768Z,960
2017-08-01T13:59:28.450Z,930
2017-08-01T14:00:30.120Z,880
2017-08-01T14:01:31.797Z,835
2017-08-01T14:02:33.469Z,795
2017-08-01T14:03:35.135Z,755
2017-08-01T14:04:36.816Z,740
2017-08-01T14:05:38.488Z,740
2017-08-01T14:06:40.192Z,715
2017-08-01T14:07:41.859Z,685
2017-08-01T14:08:43.561Z,655
2017-08-01T14:09:45.235Z,625
2017-08-01T14:10:46.901Z,625
2017-08-01T14:11:48.571Z,655
2017-08-01T14:12:50.240Z,695
2017-08-01T14:13:51.926Z,725
2017-08-01T14:14:53.583Z,700
2017-08-01T14:15:55.254Z,690
2017-08-01T14:16:56.928Z,740
2017-08-01T14:17:58.599Z,765
2017-08-01T14:19:00.265Z,760
2017-08-01T14:20:01.941Z,750
2017-08-01T14:21:03.620Z,740
2017-08-01T14:22:05.396Z,765
2017-08-01T14:23:07.079Z,785
2017-08-01T14:24:08.749Z,795
2017-08-01T14:25:10.428Z,780
2017-08-01T14:26:12.118Z,740
2017-08-01T14:27:13.790Z,710
2017-08-01T14:28:15.477Z,690
2017-08-01T14:29:17.150Z,675
2017-08-01T14:30:18.833Z,660
2017-08-01T14:31:20.507Z,630
2017-08-01T14:32:22.171Z,610
2017-08-01T14:33:23.839Z,580
2017-08-01T14:34:25.519Z,550
2017-08-01T14:35:27.195Z,535
2017-08-01T14:36:28.865Z,530
2017-08-01T14:37:30.538Z,515
2017-08-01T14:38:32.225Z,490
2017-08-01T14:39:33.894Z,460
2017-08-01T14:40:35.564Z,435
2017-08-01T14:41:37.234Z,410
2017-08-01T14:42:38.905Z,390
2017-08-01T14:43:40.584Z,375
2017-08-01T14:44:42.260Z,365
2017-08-01T14:45:43.933Z,355
2017-08-01T14:46:45.605Z,345
2017-08-01T14:47:47.367Z,340
2017-08-01T14:48:49.046Z,325
2017-08-01T14:49:50.715Z,305
2017-08-01T14:50:52.387Z,300
2017-08-01T14:51:54.058Z,305
2017-08-01T14:52:55.729Z,325
2017-08-01T14:53:57.392Z,340
2017-08-01T14:54:59.056Z,325
2017-08-01T14:56:00.725Z,310
2017-08-01T14:57:02.415Z,300
2017-08-01T14:58:04.077Z,285
2017-08-01T14:59:05.759Z,285
2017-08-01T15:00:07.469Z,305
2017-08-01T15:01:09.126Z,330
2017-08-01T15:02:10.805Z,365
2017-08-01T15:03:12.470Z,405
2017-08-01T15:04:14.154Z,425
2017-08-01T15:05:15.824Z,445
2017-08-01T15:06:17.494Z,450
2017-08-01T15:07:19.172Z,455
2017-08-01T15:08:20.844Z,450
2017-08-01T15:09:22.514Z,435
2017-08-01T15:10:24.185Z,415
2017-08-01T15:11:25.857Z,395
2017-08-01T15:12:27.525Z,390
2017-08-01T15:13:29.198Z,405
2017-08-01T15:14:30.871Z,430
2017-08-01T15:15:32.564Z,465
2017-08-01T15:16:34.242Z,500
2017-08-01T15:17:35.910Z,525
2017-08-01T15:18:37.582Z,565
2017-08-01T15:19:39.259Z,655
2017-08-01T15:20:40.933Z,760
2017-08-01T15:21:42.601Z,875
2017-08-01T15:22:44.268Z,895
2017-08-01T15:23:45.934Z,910
2017-08-01T15:24:47.604Z,890
2017-08-01T15:25:49.279Z,855
2017-08-01T15:26:50.952Z,820
2017-08-01T15:27:52.633Z,795
2017-08-01T15:28:54.306Z,775
2017-08-01T15:29:55.981Z,765
2017-08-01T15:30:57.657Z,760
2017-08-01T15:31:59.325Z,760
2017-08-01T15:33:01.008Z,775
2017-08-01T15:34:02.685Z,780
2017-08-01T15:35:04.359Z,780
2017-08-01T15:36:06.040Z,780
2017-08-01T15:37:07.718Z,775
2017-08-01T15:38:09.387Z,770
2017-08-01T15:39:11.071Z,770
2017-08-01T15:40:12.746Z,775
2017-08-01T15:41:14.416Z,795
2017-08-01T15:42:16.091Z,815
2017-08-01T15:43:17.771Z,835
2017-08-01T15:44:19.439Z,870
2017-08-01T15:45:21.111Z,865
2017-08-01T15:46:22.788Z,905
2017-08-01T15:47:24.460Z,900
2017-08-01T15:48:26.151Z,920
2017-08-01T15:49:27.816Z,920
2017-08-01T15:50:29.492Z,875
2017-08-01T15:51:31.168Z,890
2017-08-01T15:52:32.844Z,870
2017-08-01T15:53:34.513Z,1075
2017-08-01T15:54:36.186Z,1010
2017-08-01T15:55:37.863Z,960
2017-08-01T15:56:39.545Z,865
2017-08-01T15:57:41.224Z,765
2017-08-01T15:58:42.898Z,695
2017-08-01T15:59:44.570Z,685
2017-08-01T16:00:46.242Z,690
2017-08-01T16:01:47.941Z,685
2017-08-01T16:02:49.613Z,635
2017-08-01T16:03:51.290Z,600
2017-08-01T16:04:52.977Z,575
2017-08-01T16:05:54.661Z,585
2017-08-01T16:06:56.339Z,575
2017-08-01T16:07:58.016Z,555
2017-08-01T16:08:59.698Z,545
2017-08-01T16:10:01.368Z,535
2017-08-01T16:11:03.045Z,535
2017-08-01T16:12:04.713Z,530
2017-08-01T16:13:06.386Z,535
2017-08-01T16:14:08.070Z,540
2017-08-01T16:15:09.736Z,545
2017-08-01T16:16:11.424Z,550
2017-08-01T16:17:13.103Z,545
2017-08-01T16:18:14.866Z,535
2017-08-01T16:19:16.558Z,520
2017-08-01T16:20:18.228Z,510
2017-08-01T16:21:19.896Z,505
2017-08-01T16:22:21.569Z,505
2017-08-01T16:23:23.238Z,525
2017-08-01T16:24:24.910Z,605
2017-08-01T16:25:26.589Z,625
2017-08-01T16:26:28.261Z,660
2017-08-01T16:27:29.929Z,695
2017-08-01T16:28:32.310Z,735
2017-08-01T16:29:33.977Z,715
2017-08-01T16:30:35.650Z,685
2017-08-01T16:31:37.325Z,700
2017-08-01T16:32:39.001Z,685
2017-08-01T16:33:40.673Z,705
2017-08-01T16:34:42.338Z,715
2017-08-01T16:35:44.008Z,695
2017-08-01T16:36:45.691Z,720
2017-08-01T16:37:47.363Z,655
2017-08-01T16:38:49.042Z,635
2017-08-01T16:39:50.715Z,710
2017-08-01T16:40:52.398Z,675
2017-08-01T16:41:54.065Z,695
2017-08-01T16:42:55.750Z,670
2017-08-01T16:43:57.416Z,680
2017-08-01T16:44:59.093Z,675
2017-08-01T16:46:00.773Z,695
2017-08-01T16:47:02.461Z,645
2017-08-01T16:48:04.125Z,540
2017-08-01T16:49:05.792Z,545
2017-08-01T16:50:07.467Z,565
2017-08-01T16:51:09.166Z,590
2017-08-01T16:52:10.842Z,575
2017-08-01T16:53:12.516Z,530
2017-08-01T16:54:14.201Z,530
2017-08-01T16:55:15.866Z,525
2017-08-01T16:56:17.552Z,520
2017-08-01T16:57:19.224Z,510
2017-08-01T16:58:20.894Z,480
2017-08-01T16:59:22.574Z,440
2017-08-01T17:00:24.241Z,405
2017-08-01T17:01:25.915Z,360
2017-08-01T17:02:27.588Z,320
2017-08-01T17:03:29.260Z,285
2017-08-01T17:04:30.927Z,260
2017-08-01T17:05:32.600Z,245
2017-08-01T17:06:34.267Z,235
2017-08-01T17:07:35.966Z,220
2017-08-01T17:08:37.611Z,210
2017-08-01T17:09:39.312Z,210
2017-08-01T17:10:40.982Z,210
2017-08-01T17:11:42.656Z,210
2017-08-01T17:12:44.332Z,210
2017-08-01T17:13:46.013Z,205
2017-08-01T17:14:47.693Z,195
2017-08-01T17:15:49.369Z,185
2017-08-01T17:16:51.068Z,185
2017-08-01T17:17:52.757Z,200
2017-08-01T17:18:54.432Z,220
2017-08-01T17:19:56.113Z,240
2017-08-01T17:20:57.787Z,270
2017-08-01T17:21:59.473Z,295
2017-08-01T17:23:01.141Z,310
2017-08-01T17:24:02.820Z,315
2017-08-01T17:25:04.486Z,310
2017-08-01T17:26:06.174Z,295
2017-08-01T17:27:07.845Z,285
2017-08-01T17:28:09.510Z,275
2017-08-01T17:29:11.183Z,270
2017-08-01T17:30:12.865Z,275
2017-08-01T17:31:14.531Z,275
2017-08-01T17:32:16.192Z,270
2017-08-01T17:33:17.873Z,265
2017-08-01T17:34:19.543Z,245
2017-08-01T17:35:21.200Z,220
2017-08-01T17:36:22.871Z,195
2017-08-01T17:37:24.554Z,180
2017-08-01T17:38:26.226Z,170
2017-08-01T17:39:27.895Z,170
2017-08-01T17:40:29.568Z,180
2017-08-01T17:41:31.244Z,180
2017-08-01T17:42:32.919Z,180
2017-08-01T17:43:34.605Z,175
2017-08-01T17:44:36.281Z,165
2017-08-01T17:45:37.948Z,165
2017-08-01T17:46:39.623Z,160
2017-08-01T17:47:41.287Z,160
2017-08-01T17:48:42.956Z,155
2017-08-01T17:49:44.623Z,150
2017-08-01T17:50:46.300Z,150
2017-08-01T17:51:47.960Z,150
2017-08-01T17:52:49.645Z,155
2017-08-01T17:53:51.329Z,155
2017-08-01T17:54:52.998Z,155
2017-08-01T17:55:54.694Z,155
2017-08-01T17:56:56.356Z,155
2017-08-01T17:57:58.028Z,160
2017-08-01T17:58:59.714Z,170
2017-08-01T18:00:01.387Z,175
2017-08-01T18:01:03.060Z,175
2017-08-01T18:02:04.718Z,170
2017-08-01T18:03:06.385Z,165
2017-08-01T18:04:08.058Z,165
2017-08-01T18:05:09.734Z,160
2017-08-01T18:06:11.399Z,160
2017-08-01T18:07:13.074Z,160
2017-08-01T18:08:14.738Z,175
2017-08-01T18:09:16.405Z,175
2017-08-01T18:10:18.075Z,180
2017-08-01T18:11:19.741Z,180
2017-08-01T18:12:21.404Z,180
2017-08-01T18:13:23.075Z,180
2017-08-01T18:14:24.748Z,180
2017-08-01T18:15:26.415Z,170
2017-08-01T18:16:28.082Z,155
2017-08-01T18:17:29.748Z,140
2017-08-01T18:18:31.409Z,125
2017-08-01T18:19:33.079Z,125
2017-08-01T18:20:34.750Z,120
2017-08-01T18:21:36.417Z,115
2017-08-01T18:22:38.084Z,115